Time;durP1;ratioP1;P1;durP2;ratioP2;P2;SDS_P1;SDS_P2;PMS_P1;PMS_P2;Temp;Humidity;BMP_temperature;BMP_pressure;BME280_temperature;BME280_humidity;BME280_pressure;Samples;Min_cycle;Max_cycle;Signal;HPM_P1;HPM_P2
2022/08/05 00:03:13;;;;;;;6.35;5.65;;;24.30;99.90;;;;;;10314453;28;20615;-91
2022/08/05 00:08:18;;;;;;;6.18;5.60;;;24.30;99.90;;;;;;10328469;28;20244;-92
2022/08/05 00:13:37;;;;;;;5.43;5.05;;;24.30;99.90;;;;;;10329163;28;20299;-92
2022/08/05 00:18:46;;;;;;;5.32;4.82;;;24.30;99.90;;;;;;10328472;28;20684;-90
2022/08/05 00:23:49;;;;;;;6.40;5.80;;;24.30;99.90;;;;;;10328249;28;20670;-92
2022/08/05 00:29:11;;;;;;;6.40;5.63;;;24.20;99.90;;;;;;10329896;28;20661;-92
2022/08/05 00:34:14;;;;;;;5.88;5.35;;;24.20;99.90;;;;;;10328058;28;20613;-92
2022/08/05 00:39:36;;;;;;;6.03;5.53;;;24.30;99.90;;;;;;10326821;28;20287;-91
2022/08/05 00:44:45;;;;;;;6.75;6.15;;;24.20;99.90;;;;;;10327314;28;20233;-92
2022/08/05 00:49:48;;;;;;;6.88;6.28;;;24.10;99.90;;;;;;10329650;28;20256;-91
2022/08/05 00:54:53;;;;;;;6.18;5.70;;;24.10;99.90;;;;;;10327370;28;20836;-91
2022/08/05 00:59:57;;;;;;;5.82;5.32;;;24.10;99.90;;;;;;10326354;28;20233;-91
2022/08/05 01:04:59;;;;;;;5.93;5.32;;;24.00;99.90;;;;;;10326359;28;20228;-91
2022/08/05 01:10:09;;;;;;;5.43;5.03;;;24.00;99.90;;;;;;10309788;28;20306;-92
2022/08/05 01:15:19;;;;;;;6.13;5.63;;;24.00;99.90;;;;;;10325944;28;20237;-92
2022/08/05 01:21:24;;;;;;;5.55;5.10;;;23.90;99.90;;;;;;10325158;28;20267;-92
2022/08/05 01:27:08;;;;;;;6.20;5.72;;;23.90;99.90;;;;;;10325566;28;20443;-92
2022/08/05 01:32:24;;;;;;;5.80;5.40;;;23.90;99.90;;;;;;10326406;28;20236;-92
2022/08/05 01:37:42;;;;;;;6.10;5.60;;;23.80;99.90;;;;;;10324861;28;20256;-91
2022/08/05 01:42:47;;;;;;;5.85;5.35;;;23.80;99.90;;;;;;10324982;28;20868;-92
2022/08/05 01:47:52;;;;;;;5.88;5.38;;;23.80;99.90;;;;;;10325047;28;20338;-92
2022/08/05 01:53:01;;;;;;;6.25;5.75;;;23.70;99.90;;;;;;10309589;28;20287;-92
2022/08/05 01:58:08;;;;;;;5.47;5.07;;;23.70;99.90;;;;;;10326106;28;20783;-92
2022/08/05 02:03:39;;;;;;;5.72;5.28;;;23.60;99.90;;;;;;10326481;28;20565;-91
2022/08/05 02:08:42;;;;;;;6.05;5.53;;;23.70;99.90;;;;;;10326504;28;20275;-92
2022/08/05 02:14:06;;;;;;;5.55;5.05;;;23.70;99.90;;;;;;10311475;28;20267;-90
2022/08/05 02:19:27;;;;;;;6.40;5.40;;;23.60;99.90;;;;;;10320598;28;20241;-90
2022/08/05 02:24:38;;;;;;;6.10;5.60;;;23.60;99.90;;;;;;10315580;28;20197;-91
2022/08/05 02:29:43;;;;;;;5.70;5.20;;;23.60;99.90;;;;;;10321898;28;20252;-90
2022/08/05 02:35:05;;;;;;;6.22;5.68;;;23.60;99.90;;;;;;10324939;28;20697;-90
2022/08/05 02:40:16;;;;;;;6.50;6.00;;;23.60;99.90;;;;;;10323464;28;20224;-90
2022/08/05 02:45:21;;;;;;;6.15;5.65;;;23.60;99.90;;;;;;10317056;28;20237;-91
2022/08/05 02:50:26;;;;;;;5.95;5.45;;;23.60;99.90;;;;;;10321585;28;20249;-91
2022/08/05 02:55:31;;;;;;;6.45;5.95;;;23.50;99.90;;;;;;10321959;28;20224;-91
2022/08/05 03:00:55;;;;;;;6.05;5.55;;;23.50;99.90;;;;;;10324913;28;20255;-91
2022/08/05 03:05:59;;;;;;;6.07;5.50;;;23.50;99.90;;;;;;10324928;28;20220;-90
2022/08/05 03:11:24;;;;;;;5.72;5.22;;;23.50;99.90;;;;;;10314206;28;20690;-91
2022/08/05 03:16:46;;;;;;;6.20;5.70;;;23.40;99.90;;;;;;10326895;28;20229;-91
2022/08/05 03:21:49;;;;;;;5.88;5.38;;;23.40;99.90;;;;;;10313828;28;20229;-90
2022/08/05 03:26:52;;;;;;;6.80;6.30;;;23.50;99.90;;;;;;10331798;28;20652;-90
2022/08/05 03:31:55;;;;;;;5.93;5.38;;;23.40;99.90;;;;;;10329847;28;20202;-91
2022/08/05 03:37:03;;;;;;;5.85;5.40;;;23.40;99.90;;;;;;10327971;28;20229;-91
2022/08/05 03:42:07;;;;;;;6.30;5.70;;;23.40;99.90;;;;;;10329781;28;20209;-90
2022/08/05 03:47:10;;;;;;;6.63;5.70;;;23.40;99.90;;;;;;10329562;28;20777;-91
2022/08/05 03:52:21;;;;;;;6.05;5.60;;;23.40;99.90;;;;;;10329737;28;20260;-90
2022/08/05 03:57:45;;;;;;;9.70;5.38;;;23.40;99.90;;;;;;10305513;28;20740;-90
2022/08/05 04:02:51;;;;;;;5.65;5.25;;;23.40;99.90;;;;;;10327890;28;20240;-90
2022/08/05 04:08:06;;;;;;;6.13;5.60;;;23.40;99.90;;;;;;10328966;28;20720;-91
2022/08/05 04:13:29;;;;;;;5.68;5.07;;;23.40;99.90;;;;;;10328518;28;20229;-91
2022/08/05 04:18:53;;;;;;;6.88;5.75;;;23.40;99.90;;;;;;10328884;28;20283;-90
2022/08/05 04:23:59;;;;;;;6.65;6.05;;;23.40;99.90;;;;;;10328224;28;20622;-91
2022/08/05 04:29:07;;;;;;;6.78;6.18;;;23.40;99.90;;;;;;10313229;28;20248;-90
2022/08/05 04:34:10;;;;;;;6.15;5.60;;;23.40;99.90;;;;;;10323481;28;20220;-91
2022/08/05 04:39:33;;;;;;;6.47;5.85;;;23.40;99.90;;;;;;10323196;28;20637;-91
2022/08/05 04:44:37;;;;;;;6.18;5.57;;;23.40;99.90;;;;;;10327546;28;20240;-90
2022/08/05 04:49:41;;;;;;;6.28;5.78;;;23.40;99.90;;;;;;10326007;28;20252;-91
2022/08/05 04:55:03;;;;;;;6.45;5.88;;;23.40;99.90;;;;;;10309805;28;20906;-90
2022/08/05 05:00:16;;;;;;;5.95;5.45;;;23.40;99.90;;;;;;10310511;28;20236;-91
2022/08/05 05:05:24;;;;;;;6.18;5.70;;;23.40;99.90;;;;;;10328114;28;20256;-90
2022/08/05 05:10:36;;;;;;;6.15;5.55;;;23.40;99.90;;;;;;10328073;28;20827;-90
2022/08/05 05:15:39;;;;;;;6.50;5.97;;;23.40;99.90;;;;;;10327372;28;20278;-90
2022/08/05 05:21:02;;;;;;;5.80;5.30;;;23.40;99.90;;;;;;10328426;28;20245;-91
2022/08/05 05:26:05;;;;;;;6.40;5.90;;;23.40;99.90;;;;;;10327638;28;20248;-91
2022/08/05 05:31:08;;;;;;;6.75;6.15;;;23.40;99.90;;;;;;10325003;28;20244;-91
2022/08/05 05:36:10;;;;;;;7.07;6.43;;;23.40;99.90;;;;;;10329957;28;20714;-91
2022/08/05 05:41:15;;;;;;;6.82;6.28;;;23.40;99.90;;;;;;10325145;28;20209;-91
2022/08/05 05:46:19;;;;;;;6.20;5.65;;;23.50;99.90;;;;;;10322034;28;20244;-90
2022/08/05 05:51:24;;;;;;;6.05;5.55;;;23.50;99.90;;;;;;10324604;28;20283;-90
2022/08/05 05:56:30;;;;;;;5.80;5.30;;;23.40;99.90;;;;;;10305269;28;20241;-90
2022/08/05 06:01:38;;;;;;;8.32;5.90;;;23.50;99.90;;;;;;10324023;28;20295;-90
2022/08/05 06:06:43;;;;;;;6.03;5.53;;;23.40;99.90;;;;;;10325033;28;20228;-91
2022/08/05 06:11:50;;;;;;;6.35;5.85;;;23.50;99.90;;;;;;10325162;28;20839;-92
2022/08/05 06:17:03;;;;;;;6.32;5.75;;;23.50;99.90;;;;;;10318655;28;20243;-91
2022/08/05 06:22:29;;;;;;;6.13;5.63;;;23.60;99.90;;;;;;10317736;28;20272;-92
2022/08/05 06:27:35;;;;;;;5.78;5.38;;;23.60;99.90;;;;;;10319625;28;20244;-92
2022/08/05 06:32:58;;;;;;;6.43;5.88;;;23.60;99.90;;;;;;10312054;28;20656;-91
2022/08/05 06:38:00;;;;;;;6.10;5.60;;;23.70;99.90;;;;;;10324531;28;20287;-93
2022/08/05 06:43:13;;;;;;;6.10;5.60;;;23.70;99.90;;;;;;10328252;28;20201;-92
2022/08/05 06:48:35;;;;;;;6.75;6.13;;;23.80;99.90;;;;;;10326182;28;20256;-93
2022/08/05 06:54:00;;;;;;;6.50;5.65;;;23.90;99.90;;;;;;10327478;28;20593;-91
2022/08/05 06:59:04;;;;;;;5.55;5.15;;;24.00;99.90;;;;;;10301257;28;20214;-92
2022/08/05 07:04:11;;;;;;;7.38;6.00;;;24.10;99.90;;;;;;10311644;28;20622;-92
2022/08/05 07:09:15;;;;;;;7.90;6.10;;;24.30;99.90;;;;;;10326731;28;20249;-92
2022/08/05 07:19:45;;;;;;;7.05;5.70;;;24.60;99.90;;;;;;10347457;28;20209;-92
2022/08/05 07:25:08;;;;;;;6.25;5.70;;;24.70;99.90;;;;;;10338356;28;20586;-92
2022/08/05 07:30:32;;;;;;;7.78;5.40;;;24.70;99.90;;;;;;10332762;28;20779;-92
2022/08/05 07:35:40;;;;;;;6.30;5.70;;;24.90;99.90;;;;;;10328350;28;20201;-92
2022/08/05 07:41:13;;;;;;;5.93;5.47;;;24.90;99.90;;;;;;10309722;28;20546;-90
2022/08/05 07:46:36;;;;;;;7.10;5.93;;;24.80;99.90;;;;;;10319837;28;20244;-93
2022/08/05 07:51:38;;;;;;;10.45;7.85;;;24.70;99.90;;;;;;10311615;28;20256;-91
2022/08/05 07:56:49;;;;;;;5.70;5.15;;;25.30;99.90;;;;;;10313928;28;20292;-91
2022/08/05 08:02:12;;;;;;;8.57;6.60;;;25.30;99.90;;;;;;10317263;28;20957;-91
2022/08/05 08:07:20;;;;;;;6.95;5.78;;;25.90;99.90;;;;;;10298766;28;20264;-91
2022/08/05 08:12:24;;;;;;;6.65;6.15;;;25.70;99.90;;;;;;10328271;28;20267;-91
2022/08/05 08:17:40;;;;;;;6.88;6.28;;;26.00;99.90;;;;;;10307660;28;20209;-92
2022/08/05 08:22:56;;;;;;;8.13;7.13;;;25.80;99.90;;;;;;10309944;28;20236;-91
2022/08/05 08:28:00;;;;;;;6.95;6.25;;;25.70;99.90;;;;;;10316548;28;20256;-93
2022/08/05 08:33:10;;;;;;;6.22;5.63;;;25.90;99.90;;;;;;10329555;28;20248;-91
2022/08/05 08:38:15;;;;;;;8.20;6.18;;;25.80;99.90;;;;;;10329051;28;20605;-91
2022/08/05 08:43:37;;;;;;;7.32;6.10;;;26.20;99.90;;;;;;10289850;28;20217;-91
2022/08/05 08:49:02;;;;;;;6.88;6.28;;;25.90;99.90;;;;;;10330004;28;20302;-91
2022/08/05 08:54:25;;;;;;;6.78;6.18;;;25.80;99.90;;;;;;10327315;28;20287;-91
2022/08/05 08:59:29;;;;;;;6.03;5.53;;;25.70;99.90;;;;;;10328448;28;20821;-91
2022/08/05 09:04:39;;;;;;;7.13;6.45;;;25.70;99.90;;;;;;10312894;28;20205;-92
2022/08/05 09:10:02;;;;;;;7.85;6.88;;;26.80;99.90;;;;;;10328468;28;20279;-91
2022/08/05 09:15:07;;;;;;;6.63;5.95;;;26.80;99.90;;;;;;10326106;28;20205;-90
2022/08/05 09:20:11;;;;;;;10.20;6.90;;;26.50;99.90;;;;;;10327264;28;20291;-92
2022/08/05 09:25:34;;;;;;;8.68;5.80;;;27.10;99.90;;;;;;10327656;28;20212;-91
2022/08/05 09:31:03;;;;;;;6.70;5.95;;;26.80;99.90;;;;;;10334467;28;20229;-91
2022/08/05 09:36:54;;;;;;;5.90;5.45;;;26.30;99.90;;;;;;10331246;28;20193;-92
2022/08/05 09:42:03;;;;;;;5.93;5.30;;;25.90;99.90;;;;;;10331607;28;20216;-91
2022/08/05 09:47:15;;;;;;;6.35;5.82;;;27.20;99.90;;;;;;10330305;28;20204;-91
2022/08/05 09:52:30;;;;;;;6.85;5.85;;;26.80;99.90;;;;;;10329190;28;20236;-91
2022/08/05 09:57:44;;;;;;;7.65;6.88;;;27.30;99.90;;;;;;10330505;28;20256;-91
2022/08/05 10:02:53;;;;;;;8.85;6.95;;;27.40;99.90;;;;;;10328961;28;20263;-91
2022/08/05 10:08:05;;;;;;;8.73;6.72;;;28.70;99.90;;;;;;10327103;28;20235;-91
2022/08/05 10:13:34;;;;;;;6.22;5.72;;;29.50;99.90;;;;;;10310840;28;20281;-91
2022/08/05 10:18:49;;;;;;;6.10;5.50;;;28.70;99.90;;;;;;10326724;28;20205;-91
2022/08/05 10:23:54;;;;;;;7.65;6.95;;;27.30;99.90;;;;;;10309213;28;20213;-91
2022/08/05 10:29:02;;;;;;;10.65;6.13;;;26.50;99.90;;;;;;10325724;28;20302;-91
2022/08/05 10:34:09;;;;;;;5.97;5.38;;;27.10;99.90;;;;;;10323738;28;20624;-91
2022/08/05 10:39:23;;;;;;;6.22;5.72;;;26.30;99.90;;;;;;10341731;28;20209;-91
2022/08/05 10:44:47;;;;;;;7.07;6.25;;;26.00;99.90;;;;;;10308754;28;20277;-91
2022/08/05 10:50:15;;;;;;;7.05;6.30;;;25.50;99.90;;;;;;10328808;28;20224;-91
2022/08/05 10:56:01;;;;;;;9.98;6.82;;;25.40;99.90;;;;;;10321868;28;20233;-91
2022/08/05 11:01:16;;;;;;;7.28;6.57;;;25.70;99.90;;;;;;10323148;28;20237;-90
2022/08/05 11:06:59;;;;;;;6.55;6.05;;;26.00;99.90;;;;;;10334488;28;20209;-91
2022/08/05 11:12:03;;;;;;;8.48;6.38;;;26.00;99.90;;;;;;10330251;28;20225;-91
2022/08/05 11:17:32;;;;;;;7.00;6.30;;;26.30;99.90;;;;;;10312314;28;20204;-91
2022/08/05 11:22:54;;;;;;;7.07;6.47;;;26.80;99.90;;;;;;10338037;28;20263;-92
2022/08/05 11:28:10;;;;;;;6.78;6.18;;;27.50;99.90;;;;;;10341126;28;20201;-91
2022/08/05 11:33:39;;;;;;;11.15;6.78;;;27.40;99.90;;;;;;10322641;28;20208;-92
2022/08/05 11:38:53;;;;;;;7.22;6.63;;;26.80;99.90;;;;;;10326621;28;20205;-93
2022/08/05 11:44:14;;;;;;;8.55;6.82;;;28.50;99.90;;;;;;10333775;28;20206;-95
2022/08/05 11:55:19;;;;;;;8.45;7.70;;;30.20;99.90;;;;;;10340816;28;20269;-94
2022/08/05 12:00:31;;;;;;;10.48;6.40;;;29.90;99.70;;;;;;10332161;28;20201;-93
2022/08/05 12:06:03;;;;;;;11.27;8.07;;;28.30;99.90;;;;;;10380788;28;20235;-94
2022/08/05 12:11:32;;;;;;;10.00;6.45;;;28.00;99.90;;;;;;10383959;28;20229;-93
2022/08/05 12:23:11;;;;;;;8.30;7.57;;;30.30;99.90;;;;;;10375137;28;20204;-92
2022/08/05 12:28:49;;;;;;;10.10;8.10;;;29.00;99.90;;;;;;10360418;28;20233;-92
2022/08/05 12:33:57;;;;;;;8.00;7.18;;;28.00;99.90;;;;;;10362235;28;20205;-93
2022/08/05 12:39:06;;;;;;;7.70;6.68;;;28.10;99.90;;;;;;10363356;28;20232;-93
2022/08/05 12:44:37;;;;;;;9.40;6.28;;;29.80;99.90;;;;;;10380313;28;20193;-94
2022/08/05 12:49:49;;;;;;;11.38;6.82;;;30.40;99.20;;;;;;10355338;28;20236;-93
2022/08/05 12:55:22;;;;;;;8.15;6.53;;;29.80;99.90;;;;;;10375937;28;20225;-94
2022/08/05 13:00:32;;;;;;;18.60;6.20;;;;;;;;;;10352007;28;20209;-94
2022/08/05 13:05:55;;;;;;;6.88;5.93;;;31.50;96.00;;;;;;10350412;28;20208;-93
2022/08/05 13:11:04;;;;;;;6.28;5.70;;;32.10;93.00;;;;;;10356804;28;20255;-94
2022/08/05 13:16:18;;;;;;;9.90;5.30;;;32.00;94.80;;;;;;10363585;28;20204;-94
2022/08/05 13:21:38;;;;;;;6.22;5.72;;;31.30;93.50;;;;;;10378963;28;20193;-93
2022/08/05 13:26:58;;;;;;;8.52;7.35;;;31.00;94.40;;;;;;10374606;28;20748;-92
2022/08/05 13:32:05;;;;;;;7.82;5.50;;;30.00;97.70;;;;;;10359740;28;20229;-92
2022/08/05 13:37:24;;;;;;;7.35;6.70;;;31.20;96.40;;;;;;10375502;28;20204;-92
2022/08/05 13:42:38;;;;;;;6.63;5.82;;;30.70;96.80;;;;;;10362117;28;20220;-93
2022/08/05 13:47:45;;;;;;;6.10;5.53;;;31.00;95.00;;;;;;10376360;28;20247;-94
2022/08/05 13:53:09;;;;;;;6.32;5.82;;;31.40;92.50;;;;;;10352713;28;20228;-93
2022/08/05 13:58:20;;;;;;;11.75;6.25;;;30.20;95.50;;;;;;10357473;28;20807;-93
2022/08/05 14:03:32;;;;;;;7.95;4.53;;;30.00;95.70;;;;;;10348641;28;20201;-93
2022/08/05 14:08:35;;;;;;;4.97;4.57;;;31.40;90.00;;;;;;10355816;28;20209;-92
2022/08/05 14:13:41;;;;;;;6.32;4.68;;;31.90;90.10;;;;;;10350709;28;20209;-93
2022/08/05 14:18:43;;;;;;;5.05;4.60;;;31.70;89.60;;;;;;10346374;28;20569;-92
2022/08/05 14:23:50;;;;;;;6.40;4.95;;;32.60;89.90;;;;;;10350429;28;20227;-91
2022/08/05 14:28:54;;;;;;;8.15;5.50;;;32.20;87.60;;;;;;10340516;28;20208;-91
2022/08/05 14:33:57;;;;;;;6.90;4.47;;;31.90;83.90;;;;;;10345246;28;20193;-92
2022/08/05 14:39:04;;;;;;;5.55;4.78;;;32.50;86.50;;;;;;10342901;28;20259;-93
2022/08/05 14:44:12;;;;;;;6.68;6.07;;;32.10;84.20;;;;;;10338807;28;20239;-92
2022/08/05 14:49:23;;;;;;;5.57;5.15;;;31.70;90.30;;;;;;10338294;28;20217;-92
2022/08/05 14:54:45;;;;;;;4.90;4.50;;;32.10;88.40;;;;;;10338135;28;20336;-92
2022/08/05 14:59:54;;;;;;;5.97;5.28;;;31.60;88.00;;;;;;10335075;28;20261;-92
2022/08/05 15:04:57;;;;;;;5.72;5.03;;;32.30;87.10;;;;;;10337365;28;20577;-91
2022/08/05 15:10:02;;;;;;;10.50;6.32;;;32.80;88.00;;;;;;10318102;28;20259;-91
2022/08/05 15:15:05;;;;;;;5.68;5.20;;;32.70;87.40;;;;;;10334566;28;20336;-91
2022/08/05 15:20:16;;;;;;;7.13;4.93;;;32.20;87.80;;;;;;10335057;28;20197;-91
2022/08/05 15:25:25;;;;;;;6.03;5.43;;;32.70;84.50;;;;;;10336062;28;20228;-92
2022/08/05 15:30:51;;;;;;;6.03;4.55;;;32.70;85.80;;;;;;10356627;28;20233;-94
2022/08/05 15:35:55;;;;;;;5.97;4.70;;;32.70;84.00;;;;;;10339981;28;20240;-94
2022/08/05 15:40:59;;;;;;;10.43;4.93;;;32.60;85.10;;;;;;10354489;28;20236;-94
2022/08/05 15:46:26;;;;;;;10.00;5.32;;;32.50;85.70;;;;;;10369235;28;20209;-94
2022/08/05 15:51:34;;;;;;;7.13;4.78;;;32.20;89.30;;;;;;10351865;28;20241;-95
2022/08/05 15:56:57;;;;;;;10.90;5.55;;;31.90;89.70;;;;;;10364780;28;20213;-94
2022/08/05 16:02:00;;;;;;;15.23;5.72;;;31.70;90.40;;;;;;10350432;28;20217;-94
2022/08/05 16:07:03;;;;;;;6.38;4.95;;;31.60;88.30;;;;;;10348808;28;20205;-94
2022/08/05 16:12:12;;;;;;;7.13;5.65;;;31.50;88.50;;;;;;10326452;28;20225;-96
2022/08/05 16:17:23;;;;;;;8.27;5.10;;;31.10;91.10;;;;;;10343301;28;20268;-95
2022/08/05 16:22:30;;;;;;;10.65;5.10;;;30.60;92.10;;;;;;10311549;28;20583;-91
2022/08/05 16:27:37;;;;;;;6.65;5.65;;;30.10;93.70;;;;;;9968004;28;10000420;-91
2022/08/05 16:33:00;;;;;;;28.40;10.15;;;30.60;93.90;;;;;;10328145;28;20804;-91
2022/08/05 16:38:03;;;;;;;11.70;10.02;;;30.60;98.60;;;;;;10326259;28;20241;-92
2022/08/05 16:43:27;;;;;;;19.02;9.75;;;30.60;99.10;;;;;;10324674;28;20268;-92
2022/08/05 16:48:29;;;;;;;11.25;9.63;;;30.40;99.40;;;;;;10323867;28;20244;-92
2022/08/05 16:53:41;;;;;;;12.35;10.82;;;30.10;99.80;;;;;;10319334;28;20331;-92
2022/08/05 16:59:05;;;;;;;10.45;9.45;;;29.60;99.90;;;;;;10340246;28;20291;-91
2022/08/05 17:04:09;;;;;;;17.50;9.05;;;29.20;99.90;;;;;;10324893;28;20364;-92
2022/08/05 17:09:16;;;;;;;25.85;9.38;;;28.80;99.90;;;;;;10309697;28;20302;-92
2022/08/05 17:14:19;;;;;;;11.55;8.48;;;28.50;99.90;;;;;;10315659;28;20291;-92
2022/08/05 17:19:40;;;;;;;8.02;7.18;;;28.20;99.90;;;;;;10310140;28;20650;-92
2022/08/05 17:24:43;;;;;;;8.93;6.68;;;28.00;99.90;;;;;;10304094;28;20236;-91
2022/08/05 17:29:58;;;;;;;9.68;6.32;;;27.90;99.90;;;;;;10333575;28;20256;-93
2022/08/05 17:35:02;;;;;;;6.57;5.63;;;27.60;99.90;;;;;;10322544;28;20679;-91
2022/08/05 17:40:08;;;;;;;9.68;5.18;;;26.80;99.90;;;;;;10321422;28;20652;-92
2022/08/05 17:45:12;;;;;;;5.43;5.03;;;26.40;99.90;;;;;;10280176;28;20275;-92
2022/08/05 17:50:27;;;;;;;11.38;6.03;;;26.20;99.90;;;;;;10305668;28;20261;-91
2022/08/05 17:55:32;;;;;;;7.53;4.85;;;26.10;99.90;;;;;;10325295;28;20252;-92
2022/08/05 18:00:44;;;;;;;6.53;5.65;;;25.80;99.90;;;;;;10320816;28;20266;-92
2022/08/05 18:05:52;;;;;;;7.95;5.72;;;25.40;99.90;;;;;;10306812;28;20244;-91
2022/08/05 18:10:55;;;;;;;7.05;5.88;;;25.10;99.90;;;;;;10321911;28;20245;-91
2022/08/05 18:15:58;;;;;;;12.68;6.10;;;24.90;99.90;;;;;;10323436;28;20240;-89
2022/08/05 18:21:01;;;;;;;8.30;7.45;;;24.70;99.90;;;;;;10322450;28;20484;-92
2022/08/05 18:26:04;;;;;;;10.82;6.72;;;24.70;99.90;;;;;;10323337;28;20232;-91
2022/08/05 18:31:09;;;;;;;12.45;8.30;;;24.50;99.90;;;;;;10294621;28;20658;-91
2022/08/05 18:36:12;;;;;;;10.10;7.60;;;24.40;99.90;;;;;;10291945;28;20233;-91
2022/08/05 18:41:17;;;;;;;9.48;7.35;;;24.30;99.90;;;;;;10340592;28;20204;-90
2022/08/05 18:46:40;;;;;;;9.00;7.55;;;;;;;;;;10328658;28;20244;-89
2022/08/05 18:57:14;;;;;;;8.85;7.70;;;23.90;99.90;;;;;;10287533;28;20201;-91
2022/08/05 19:02:18;;;;;;;10.55;7.57;;;23.70;99.90;;;;;;10327209;28;20346;-90
2022/08/05 19:07:30;;;;;;;15.30;8.32;;;23.70;99.90;;;;;;10326886;28;20240;-92
2022/08/05 19:12:48;;;;;;;9.55;7.40;;;23.60;99.90;;;;;;10304501;28;20326;-91
2022/08/05 19:17:55;;;;;;;8.95;7.75;;;23.60;99.90;;;;;;10287638;28;20234;-91
2022/08/05 19:23:12;;;;;;;8.70;7.43;;;23.60;99.90;;;;;;10257643;28;20237;-91
2022/08/05 19:28:40;;;;;;;13.60;8.10;;;23.50;99.90;;;;;;10293355;28;20609;-91
2022/08/05 19:33:45;;;;;;;11.07;7.53;;;23.40;99.90;;;;;;10267339;28;20237;-91
2022/08/05 19:38:58;;;;;;;8.57;7.45;;;23.30;99.90;;;;;;10275945;28;20202;-91
2022/08/05 19:44:06;;;;;;;8.90;7.97;;;23.30;99.90;;;;;;10279373;28;20248;-91
2022/08/05 19:49:15;;;;;;;11.38;8.48;;;23.10;99.90;;;;;;10293706;28;20264;-91
2022/08/05 19:54:19;;;;;;;7.95;7.25;;;23.10;99.90;;;;;;10294076;28;20284;-92
2022/08/05 19:59:33;;;;;;;9.00;7.78;;;23.00;99.90;;;;;;10296594;28;20679;-91
2022/08/05 20:04:55;;;;;;;8.48;7.63;;;22.90;99.90;;;;;;10292731;28;20268;-91
2022/08/05 20:10:01;;;;;;;9.32;7.25;;;22.80;99.90;;;;;;10292859;28;20201;-90
2022/08/05 20:15:13;;;;;;;7.78;7.00;;;22.60;99.90;;;;;;10292819;28;20210;-90
2022/08/05 20:20:15;;;;;;;33.95;11.90;;;22.70;99.90;;;;;;10290294;28;20590;-92
2022/08/05 20:25:18;;;;;;;13.30;10.95;;;20.60;99.90;;;;;;10287868;28;20230;-93
2022/08/05 20:30:26;;;;;;;14.10;10.55;;;20.30;99.90;;;;;;10288560;28;20898;-91
2022/08/05 20:35:28;;;;;;;14.38;9.65;;;20.20;99.90;;;;;;10288286;28;20253;-89
2022/08/05 20:40:42;;;;;;;11.27;8.85;;;20.00;99.90;;;;;;10273484;28;20229;-90
2022/08/05 20:45:46;;;;;;;8.90;8.10;;;20.10;99.90;;;;;;10288050;28;20292;-88
2022/08/05 20:50:58;;;;;;;9.35;8.48;;;20.00;99.90;;;;;;10283525;28;20292;-89
2022/08/05 20:56:09;;;;;;;9.57;8.63;;;20.00;99.90;;;;;;10288035;28;20214;-88
2022/08/05 21:01:11;;;;;;;9.60;8.52;;;20.00;99.90;;;;;;10287969;28;20233;-89
2022/08/05 21:06:15;;;;;;;10.98;9.27;;;20.00;99.90;;;;;;10288717;28;20221;-88
2022/08/05 21:11:30;;;;;;;11.43;8.65;;;20.10;99.90;;;;;;10291851;28;20264;-90
2022/08/05 21:16:52;;;;;;;15.60;9.38;;;20.00;99.90;;;;;;10286653;28;20272;-90
2022/08/05 21:21:55;;;;;;;12.80;9.35;;;20.00;99.90;;;;;;10286813;28;20241;-90
2022/08/05 21:26:58;;;;;;;11.18;9.98;;;;;;;;;;10285350;28;20237;-89
2022/08/05 21:32:02;;;;;;;10.95;9.50;;;20.10;99.90;;;;;;10260809;28;20266;-88
2022/08/05 21:37:06;;;;;;;10.20;9.18;;;20.10;99.90;;;;;;10272585;28;20233;-88
2022/08/05 21:42:09;;;;;;;11.63;10.50;;;20.20;99.90;;;;;;10284825;28;20229;-89
2022/08/05 21:47:34;;;;;;;12.38;9.73;;;19.90;99.90;;;;;;10277988;28;20303;-89
2022/08/05 21:52:56;;;;;;;11.98;10.77;;;19.80;99.90;;;;;;10264035;28;20281;-88
2022/08/05 21:58:06;;;;;;;13.57;9.98;;;19.80;99.90;;;;;;10299062;28;20336;-88
2022/08/05 22:03:14;;;;;;;13.73;9.85;;;19.90;99.90;;;;;;10308208;28;20287;-87
2022/08/05 22:08:17;;;;;;;10.50;9.52;;;19.90;99.90;;;;;;10285116;28;20241;-88
2022/08/05 22:13:27;;;;;;;11.93;10.25;;;19.90;99.90;;;;;;10286014;28;20249;-87
2022/08/05 22:18:50;;;;;;;12.23;11.00;;;19.80;99.90;;;;;;10283222;28;20296;-88
2022/08/05 22:29:33;;;;;;;15.60;11.75;;;19.80;99.90;;;;;;10296793;28;20245;-88
2022/08/05 22:34:36;;;;;;;16.63;12.02;;;19.90;99.90;;;;;;10285180;28;20722;-88
2022/08/05 22:39:38;;;;;;;12.93;11.55;;;19.90;99.90;;;;;;10285866;28;20276;-88
2022/08/05 22:44:41;;;;;;;15.43;11.65;;;19.90;99.90;;;;;;10257904;28;20240;-88
2022/08/05 22:50:01;;;;;;;14.15;11.65;;;19.80;99.90;;;;;;10290617;28;20299;-88
2022/08/05 22:55:23;;;;;;;12.90;11.60;;;19.80;99.90;;;;;;10280581;28;20261;-89
2022/08/05 23:00:27;;;;;;;14.32;11.02;;;19.80;99.90;;;;;;10293230;28;20241;-88
2022/08/05 23:05:32;;;;;;;13.27;11.88;;;19.90;99.90;;;;;;10290603;28;20633;-88
2022/08/05 23:10:37;;;;;;;15.02;12.27;;;19.80;99.90;;;;;;10293077;28;20241;-88
2022/08/05 23:15:40;;;;;;;13.57;12.18;;;19.90;99.90;;;;;;10291289;28;20249;-89
2022/08/05 23:20:44;;;;;;;13.07;11.30;;;19.90;99.90;;;;;;10292654;28;20225;-88
2022/08/05 23:25:46;;;;;;;13.00;11.68;;;19.70;99.90;;;;;;10290312;28;20311;-89
2022/08/05 23:30:56;;;;;;;13.02;11.60;;;19.60;99.90;;;;;;10291775;28;20233;-89
2022/08/05 23:36:18;;;;;;;12.63;11.35;;;19.60;99.90;;;;;;10291659;28;20261;-89
2022/08/05 23:41:21;;;;;;;15.48;12.27;;;19.60;99.90;;;;;;10292059;28;20686;-89
2022/08/05 23:46:25;;;;;;;12.82;10.98;;;19.60;99.90;;;;;;10290555;28;20779;-89
2022/08/05 23:56:58;;;;;;;14.40;12.77;;;19.50;99.90;;;;;;10289576;28;20229;-88
